createdAt,value
2023-01-01T00:02:56.777Z,10.80
2023-01-01T00:08:18.475Z,5.35
2023-01-01T00:13:41.839Z,5.78
2023-01-01T00:19:03.851Z,5.60
2023-01-01T00:24:25.639Z,3.65
2023-01-01T00:29:47.392Z,6.57
2023-01-01T00:35:09.789Z,6.15
2023-01-01T00:40:31.686Z,6.32
2023-01-01T00:45:53.918Z,6.70
2023-01-01T00:51:15.712Z,8.60
2023-01-01T00:56:37.628Z,3.45
2023-01-01T01:01:59.486Z,5.07
2023-01-01T01:07:21.364Z,5.80
2023-01-01T01:12:43.244Z,5.25
2023-01-01T01:18:05.041Z,6.22
2023-01-01T01:23:26.797Z,3.15
2023-01-01T01:28:50.162Z,4.65
2023-01-01T01:34:16.072Z,2.97
2023-01-01T01:39:38.919Z,4.60
2023-01-01T01:45:02.978Z,6.13
2023-01-01T01:50:34.595Z,4.43
2023-01-01T01:56:07.955Z,3.22
2023-01-01T02:01:30.116Z,5.00
2023-01-01T02:06:53.096Z,3.83
2023-01-01T02:12:14.926Z,4.80
2023-01-01T02:18:00.672Z,4.43
2023-01-01T02:23:53.275Z,5.43
2023-01-01T02:29:38.170Z,4.28
2023-01-01T02:35:31.316Z,3.17
2023-01-01T02:41:00.982Z,2.55
2023-01-01T02:51:59.557Z,7.75
2023-01-01T02:57:46.250Z,3.30
2023-01-01T03:09:03.264Z,4.70
2023-01-01T03:14:32.750Z,4.88
2023-01-01T03:19:56.664Z,4.13
2023-01-01T03:25:24.479Z,4.20
2023-01-01T03:30:49.145Z,2.83
2023-01-01T03:36:20.008Z,5.23
2023-01-01T03:41:50.441Z,4.70
2023-01-01T03:47:12.499Z,3.17
2023-01-01T03:52:58.266Z,3.70
2023-01-01T03:58:43.813Z,4.03
2023-01-01T04:04:07.051Z,10.80
2023-01-01T04:09:35.622Z,4.78
2023-01-01T04:14:57.316Z,2.17
2023-01-01T04:20:19.879Z,4.85
2023-01-01T04:25:41.651Z,3.65
2023-01-01T04:31:03.393Z,2.60
2023-01-01T04:36:25.109Z,2.03
2023-01-01T04:41:47.267Z,2.90
2023-01-01T04:47:09.493Z,2.05
2023-01-01T04:52:31.216Z,2.00
2023-01-01T04:57:52.923Z,4.38
2023-01-01T05:03:14.699Z,4.65
2023-01-01T05:08:39.411Z,2.38
2023-01-01T05:14:02.146Z,3.27
2023-01-01T05:19:23.902Z,2.03
2023-01-01T05:24:45.706Z,2.00
2023-01-01T05:30:08.016Z,4.60
2023-01-01T05:35:29.728Z,2.08
2023-01-01T05:40:51.456Z,1.85
2023-01-01T05:46:16.383Z,3.67
2023-01-01T05:56:58.865Z,2.97
2023-01-01T06:02:20.950Z,1.77
2023-01-01T06:07:48.208Z,2.70
2023-01-01T06:13:13.444Z,1.90
2023-01-01T06:18:35.976Z,2.23
2023-01-01T06:23:59.083Z,2.30
2023-01-01T06:29:20.829Z,2.50
2023-01-01T06:34:42.526Z,1.52
2023-01-01T06:40:04.771Z,2.45
2023-01-01T06:45:26.601Z,2.08
2023-01-01T06:50:48.337Z,1.15
2023-01-01T06:56:10.144Z,1.42
2023-01-01T07:01:34.082Z,1.20
2023-01-01T07:06:55.870Z,3.00
2023-01-01T07:12:17.588Z,0.88
2023-01-01T07:17:39.307Z,1.35
2023-01-01T07:23:02.641Z,1.70
2023-01-01T07:28:25.612Z,0.65
2023-01-01T07:33:47.402Z,1.42
2023-01-01T07:39:09.786Z,1.45
2023-01-01T07:44:31.545Z,1.38
2023-01-01T07:49:53.433Z,1.58
2023-01-01T07:55:16.921Z,0.85
2023-01-01T08:00:38.912Z,1.95
2023-01-01T08:06:00.644Z,1.38
2023-01-01T08:11:22.409Z,1.08
2023-01-01T08:16:44.126Z,3.67
2023-01-01T08:22:05.862Z,5.05
2023-01-01T08:27:27.639Z,5.90
2023-01-01T08:32:49.450Z,1.77
2023-01-01T08:38:12.347Z,5.38
2023-01-01T08:43:34.063Z,6.22
2023-01-01T08:48:55.807Z,7.97
2023-01-01T08:54:17.543Z,10.35
2023-01-01T08:59:39.286Z,10.68
2023-01-01T09:05:01.031Z,10.32
2023-01-01T09:10:22.868Z,5.78
2023-01-01T09:15:44.799Z,10.85
2023-01-01T09:21:06.643Z,8.68
2023-01-01T09:26:28.580Z,9.88
2023-01-01T09:31:50.526Z,13.55
2023-01-01T09:37:12.292Z,8.50
2023-01-01T09:42:43.792Z,13.35
2023-01-01T09:48:11.835Z,8.65
2023-01-01T09:54:08.247Z,9.82
2023-01-01T09:59:30.361Z,9.27
2023-01-01T10:05:14.033Z,6.97
2023-01-01T10:10:49.756Z,9.45
2023-01-01T10:16:25.365Z,13.75
2023-01-01T10:21:49.934Z,6.18
2023-01-01T10:27:28.334Z,7.72
2023-01-01T10:32:52.307Z,5.43
2023-01-01T10:38:26.853Z,7.95
2023-01-01T10:43:49.660Z,10.93
2023-01-01T10:49:16.227Z,6.07
2023-01-01T10:54:40.495Z,8.23
2023-01-01T11:00:23.357Z,8.05
2023-01-01T11:06:10.963Z,7.55
2023-01-01T11:11:47.109Z,7.35
2023-01-01T11:17:10.106Z,11.30
2023-01-01T11:22:39.899Z,9.35
2023-01-01T11:28:31.623Z,13.57
2023-01-01T11:33:56.791Z,15.60
2023-01-01T11:39:26.736Z,9.93
2023-01-01T11:44:53.495Z,16.33
2023-01-01T11:50:53.521Z,12.77
2023-01-01T11:56:21.321Z,16.00
2023-01-01T12:02:02.416Z,7.72
2023-01-01T12:07:31.919Z,5.35
2023-01-01T12:13:11.521Z,8.30
2023-01-01T12:18:47.706Z,9.85
2023-01-01T12:24:13.005Z,5.47
2023-01-01T12:30:01.477Z,11.32
2023-01-01T12:35:52.722Z,13.55
2023-01-01T12:41:39.845Z,6.18
2023-01-01T12:47:23.167Z,9.18
2023-01-01T12:53:07.882Z,6.07
2023-01-01T12:58:42.457Z,6.40
2023-01-01T13:04:33.383Z,8.00
2023-01-01T13:09:56.951Z,8.82
2023-01-01T13:15:37.365Z,13.95
2023-01-01T13:21:06.761Z,6.93
2023-01-01T13:26:28.474Z,12.10
2023-01-01T13:31:50.231Z,10.82
2023-01-01T13:37:14.034Z,8.18
2023-01-01T13:42:57.632Z,11.32
2023-01-01T13:49:07.652Z,5.50
2023-01-01T13:54:35.572Z,9.83
2023-01-01T14:00:19.140Z,6.97
2023-01-01T14:05:58.814Z,14.30
2023-01-01T14:11:24.888Z,4.32
2023-01-01T14:16:46.660Z,4.65
2023-01-01T14:22:10.543Z,6.68
2023-01-01T14:27:32.754Z,4.68
2023-01-01T14:33:02.686Z,4.70
2023-01-01T14:38:35.905Z,10.38
2023-01-01T14:44:03.529Z,7.97
2023-01-01T14:49:39.069Z,6.65
2023-01-01T14:55:02.197Z,2.90
2023-01-01T15:00:28.239Z,4.72
2023-01-01T15:06:00.697Z,3.22
2023-01-01T15:11:28.566Z,3.72
2023-01-01T15:17:03.544Z,1.95
2023-01-01T15:22:27.058Z,2.97
2023-01-01T15:27:54.545Z,2.80
2023-01-01T15:33:17.267Z,1.67
2023-01-01T15:38:42.020Z,3.30
2023-01-01T15:44:19.866Z,1.97
2023-01-01T15:49:41.632Z,2.42
2023-01-01T15:55:03.942Z,1.95
2023-01-01T16:00:29.475Z,2.78
2023-01-01T16:11:14.900Z,3.55
2023-01-01T16:16:39.497Z,2.38
2023-01-01T16:22:01.307Z,1.97
2023-01-01T16:27:23.095Z,1.15
2023-01-01T16:32:45.552Z,2.80
2023-01-01T16:38:07.332Z,2.70
2023-01-01T16:43:29.074Z,1.05
2023-01-01T16:48:50.885Z,2.75
2023-01-01T16:54:12.729Z,1.77
2023-01-01T16:59:34.544Z,1.48
2023-01-01T17:04:56.314Z,1.65
2023-01-01T17:10:18.138Z,1.40
2023-01-01T17:15:39.953Z,3.33
2023-01-01T17:21:06.389Z,1.95
2023-01-01T17:26:28.213Z,1.48
2023-01-01T17:31:50.494Z,1.15
2023-01-01T17:37:12.283Z,0.77
2023-01-01T17:42:35.111Z,1.08
2023-01-01T17:47:56.898Z,1.05
2023-01-01T17:53:18.635Z,1.35
2023-01-01T17:58:41.847Z,1.70
2023-01-01T18:04:06.456Z,1.00
2023-01-01T18:09:28.260Z,1.10
2023-01-01T18:14:50.020Z,1.58
2023-01-01T18:20:12.013Z,1.33
2023-01-01T18:25:33.805Z,1.17
2023-01-01T18:30:56.103Z,1.23
2023-01-01T18:36:20.771Z,1.00
2023-01-01T18:41:48.343Z,1.00
2023-01-01T18:47:17.747Z,0.90
2023-01-01T18:52:39.439Z,1.90
2023-01-01T18:58:14.436Z,0.50
2023-01-01T19:03:41.556Z,1.83
2023-01-01T19:09:23.539Z,0.68
2023-01-01T19:14:45.275Z,1.02
2023-01-01T19:20:15.874Z,0.65
2023-01-01T19:25:39.831Z,1.00
2023-01-01T19:31:03.117Z,1.58
2023-01-01T19:36:24.890Z,1.20
2023-01-01T19:41:47.339Z,1.67
2023-01-01T19:47:10.706Z,5.25
2023-01-01T19:52:32.464Z,3.40
2023-01-01T19:57:54.224Z,1.40
2023-01-01T20:03:52.002Z,5.38
2023-01-01T20:08:58.128Z,3.65
2023-01-01T20:14:19.868Z,2.15
2023-01-01T20:19:42.641Z,3.78
2023-01-01T20:25:04.981Z,3.90
2023-01-01T20:30:26.768Z,5.00
2023-01-01T20:36:06.777Z,5.10
2023-01-01T20:41:28.573Z,9.48
2023-01-01T20:46:50.365Z,7.75
2023-01-01T20:52:12.153Z,8.82
2023-01-01T20:57:34.331Z,10.02
2023-01-01T21:02:56.069Z,7.82
2023-01-01T21:08:17.810Z,3.92
2023-01-01T21:13:39.713Z,11.80
2023-01-01T21:19:02.832Z,2.92
2023-01-01T21:24:32.986Z,14.98
2023-01-01T21:29:57.318Z,8.20
2023-01-01T21:35:32.835Z,14.77
2023-01-01T21:40:58.729Z,19.15
2023-01-01T21:46:39.567Z,8.00
2023-01-01T21:52:01.951Z,7.53
2023-01-01T21:57:25.271Z,11.15
2023-01-01T22:02:48.682Z,8.27
2023-01-01T22:08:24.668Z,10.15
2023-01-01T22:13:46.396Z,9.70
2023-01-01T22:19:17.385Z,4.97
2023-01-01T22:24:39.311Z,4.28
2023-01-01T22:30:19.032Z,7.32
2023-01-01T22:35:40.725Z,7.05
2023-01-01T22:41:02.531Z,4.10
2023-01-01T22:46:32.379Z,7.22
2023-01-01T22:51:54.989Z,5.45
2023-01-01T22:57:16.693Z,7.28
2023-01-01T23:02:38.451Z,3.45
2023-01-01T23:08:00.306Z,4.60
2023-01-01T23:13:40.364Z,2.85
2023-01-01T23:19:02.313Z,3.28
2023-01-01T23:24:24.820Z,2.30
2023-01-01T23:29:49.524Z,3.97
2023-01-01T23:35:11.533Z,4.27
2023-01-01T23:40:33.277Z,4.25
2023-01-01T23:45:55.326Z,3.55
2023-01-01T23:51:17.544Z,1.95
2023-01-01T23:56:39.335Z,4.95
